Time;durP1;ratioP1;P1;durP2;ratioP2;P2;SDS_P1;SDS_P2;PMS_P1;PMS_P2;Temp;Humidity;BMP_temperature;BMP_pressure;BME280_temperature;BME280_humidity;BME280_pressure;Samples;Min_cycle;Max_cycle;Signal;HPM_P1;HPM_P2
2021/12/30 00:00:46;;;;;;;33.17;21.13;;;8.90;99.90;;;;;;638006;225;26583;-78
2021/12/30 00:03:14;;;;;;;29.53;19.40;;;8.90;99.90;;;;;;636869;225;26515;-79
2021/12/30 00:05:41;;;;;;;29.63;19.13;;;8.90;99.90;;;;;;637712;224;26764;-79
2021/12/30 00:08:09;;;;;;;30.17;20.17;;;8.90;99.90;;;;;;637646;224;26520;-79
2021/12/30 00:10:36;;;;;;;31.63;20.70;;;8.90;99.90;;;;;;638017;219;26853;-79
2021/12/30 00:13:03;;;;;;;29.57;19.93;;;9.00;99.90;;;;;;637365;224;26556;-79
2021/12/30 00:15:30;;;;;;;31.23;20.50;;;9.00;99.90;;;;;;637348;224;26838;-80
2021/12/30 00:17:57;;;;;;;37.57;24.03;;;8.80;99.90;;;;;;637365;225;26575;-78
2021/12/30 00:20:26;;;;;;;29.03;20.50;;;8.50;99.90;;;;;;637315;224;26851;-79
2021/12/30 00:22:53;;;;;;;25.10;19.43;;;8.50;99.90;;;;;;637287;225;26576;-79
2021/12/30 00:25:21;;;;;;;28.27;20.73;;;8.40;99.90;;;;;;637398;224;26597;-79
2021/12/30 00:27:49;;;;;;;25.60;18.50;;;8.30;99.90;;;;;;637409;224;26585;-79
2021/12/30 00:30:16;;;;;;;23.37;17.63;;;8.30;99.90;;;;;;637156;221;26576;-79
2021/12/30 00:32:44;;;;;;;27.33;18.60;;;8.20;99.90;;;;;;637117;224;26565;-79
2021/12/30 00:35:12;;;;;;;26.40;18.10;;;8.10;99.90;;;;;;637115;225;26948;-79
2021/12/30 00:37:39;;;;;;;27.23;19.13;;;8.00;99.90;;;;;;637088;226;26573;-79
2021/12/30 00:40:07;;;;;;;25.27;17.83;;;8.00;99.90;;;;;;636999;221;26845;-79
2021/12/30 00:42:35;;;;;;;23.57;17.33;;;8.10;99.90;;;;;;637004;226;26576;-80
2021/12/30 00:45:02;;;;;;;25.73;18.03;;;8.00;99.90;;;;;;636879;225;26820;-77
2021/12/30 00:47:29;;;;;;;26.20;18.87;;;8.10;99.90;;;;;;636896;219;26797;-79
2021/12/30 00:49:56;;;;;;;28.20;18.70;;;8.10;99.90;;;;;;636907;224;27056;-79
2021/12/30 00:52:24;;;;;;;28.80;19.50;;;8.10;99.90;;;;;;636967;224;26573;-79
2021/12/30 00:54:50;;;;;;;24.43;18.33;;;8.00;99.90;;;;;;636948;224;26832;-80
2021/12/30 00:57:18;;;;;;;24.50;18.10;;;7.90;99.90;;;;;;636990;224;26561;-80
2021/12/30 00:59:45;;;;;;;25.33;18.50;;;8.10;99.90;;;;;;637000;220;27206;-79
2021/12/30 01:02:12;;;;;;;25.93;17.70;;;8.10;99.90;;;;;;637007;224;26637;-79
2021/12/30 01:04:39;;;;;;;25.03;17.43;;;8.20;99.90;;;;;;637304;223;26881;-80
2021/12/30 01:07:07;;;;;;;25.20;17.60;;;8.40;99.90;;;;;;638651;224;26556;-79
2021/12/30 01:09:34;;;;;;;25.23;17.43;;;8.60;99.90;;;;;;638151;223;26763;-79
2021/12/30 01:12:02;;;;;;;24.73;17.87;;;8.60;99.90;;;;;;637924;224;26570;-79
2021/12/30 01:14:30;;;;;;;23.87;17.20;;;8.60;99.90;;;;;;637887;223;26587;-79
2021/12/30 01:17:10;;;;;;;23.37;16.70;;;8.40;99.90;;;;;;637537;224;26548;-79
2021/12/30 01:21:59;;;;;;;22.80;17.10;;;8.30;99.90;;;;;;637617;224;26500;-79
2021/12/30 01:24:26;;;;;;;23.13;17.07;;;8.10;99.90;;;;;;637460;225;26607;-79
2021/12/30 01:26:55;;;;;;;22.63;17.03;;;8.00;99.90;;;;;;637344;224;26585;-79
2021/12/30 01:29:22;;;;;;;20.97;15.53;;;8.00;99.90;;;;;;637250;225;26604;-79
2021/12/30 01:31:49;;;;;;;22.20;16.53;;;8.20;99.90;;;;;;637071;224;26577;-80
2021/12/30 01:34:16;;;;;;;22.30;16.40;;;8.20;99.90;;;;;;637134;224;27275;-79
2021/12/30 01:36:43;;;;;;;20.93;16.90;;;8.30;99.90;;;;;;627977;225;26565;-79
2021/12/30 01:39:11;;;;;;;21.30;15.93;;;8.50;99.90;;;;;;637271;225;26920;-79
2021/12/30 01:41:39;;;;;;;22.00;14.97;;;8.50;99.90;;;;;;637087;225;26597;-79
2021/12/30 01:44:05;;;;;;;21.23;15.80;;;8.50;99.90;;;;;;636924;225;26787;-79
2021/12/30 01:46:38;;;;;;;21.40;15.87;;;8.50;99.90;;;;;;636988;225;26549;-79
2021/12/30 01:49:06;;;;;;;20.27;15.27;;;8.20;99.90;;;;;;637032;224;26598;-79
2021/12/30 01:51:33;;;;;;;21.10;16.33;;;8.20;99.90;;;;;;636971;224;26528;-79
2021/12/30 01:54:01;;;;;;;20.43;16.13;;;7.40;99.90;;;;;;636992;226;26569;-80
2021/12/30 01:56:29;;;;;;;22.83;16.13;;;7.40;99.90;;;;;;637001;224;26630;-79
2021/12/30 01:58:56;;;;;;;22.20;17.17;;;7.40;99.90;;;;;;636897;224;26618;-80
2021/12/30 02:01:23;;;;;;;20.93;16.13;;;7.40;99.90;;;;;;636878;224;26565;-79
2021/12/30 02:03:51;;;;;;;19.73;15.77;;;7.40;99.90;;;;;;636949;224;26610;-79
2021/12/30 02:06:18;;;;;;;20.80;16.67;;;7.40;99.90;;;;;;636976;226;26797;-79
2021/12/30 02:08:45;;;;;;;20.70;15.53;;;7.60;99.90;;;;;;636944;221;26850;-80
2021/12/30 02:11:12;;;;;;;20.43;15.77;;;7.80;99.90;;;;;;637024;225;26626;-80
2021/12/30 02:13:40;;;;;;;22.30;16.67;;;7.90;99.90;;;;;;644572;222;26751;-79
2021/12/30 02:16:07;;;;;;;19.83;16.03;;;7.80;99.90;;;;;;647526;220;26559;-79
2021/12/30 02:18:34;;;;;;;19.23;15.57;;;7.80;99.90;;;;;;649027;221;26894;-80
2021/12/30 02:21:02;;;;;;;22.67;17.33;;;7.80;99.90;;;;;;648524;217;26527;-80
2021/12/30 02:23:31;;;;;;;23.30;16.90;;;8.00;99.90;;;;;;648175;221;26572;-80
2021/12/30 02:26:02;;;;;;;21.20;16.93;;;8.00;99.90;;;;;;647998;221;26542;-79
2021/12/30 02:28:29;;;;;;;21.00;17.30;;;7.90;99.90;;;;;;647584;222;26526;-80
2021/12/30 02:30:57;;;;;;;22.30;17.60;;;7.90;99.90;;;;;;647829;222;26549;-79
2021/12/30 02:33:25;;;;;;;22.60;17.33;;;7.80;99.90;;;;;;647869;222;26494;-79
2021/12/30 02:35:53;;;;;;;23.80;17.53;;;7.70;99.90;;;;;;647577;222;26584;-80
2021/12/30 02:38:21;;;;;;;25.17;18.63;;;7.80;99.90;;;;;;647540;222;26563;-79
2021/12/30 02:40:50;;;;;;;23.67;17.83;;;7.80;99.90;;;;;;647470;222;26595;-79
2021/12/30 02:43:17;;;;;;;22.83;16.87;;;7.90;99.90;;;;;;647567;222;26533;-79
2021/12/30 02:45:44;;;;;;;22.23;17.93;;;8.00;99.90;;;;;;647476;222;26856;-80
2021/12/30 02:48:13;;;;;;;20.37;17.80;;;7.90;99.90;;;;;;647478;222;26571;-78
2021/12/30 02:50:41;;;;;;;22.10;17.40;;;8.00;99.90;;;;;;647316;222;26917;-79
2021/12/30 02:53:08;;;;;;;23.17;17.73;;;8.00;99.90;;;;;;647203;222;26583;-79
2021/12/30 02:55:35;;;;;;;20.73;17.73;;;7.90;99.90;;;;;;647063;222;26784;-79
2021/12/30 02:58:02;;;;;;;26.33;18.87;;;7.90;99.90;;;;;;647029;222;26534;-80
2021/12/30 03:00:30;;;;;;;23.73;18.17;;;7.90;99.90;;;;;;647141;222;26890;-79
2021/12/30 03:02:57;;;;;;;23.57;18.40;;;7.70;99.90;;;;;;647120;222;26590;-79
2021/12/30 03:05:26;;;;;;;23.17;17.73;;;7.70;99.90;;;;;;647125;222;26561;-79
2021/12/30 03:07:53;;;;;;;23.70;17.57;;;7.80;99.90;;;;;;647099;222;26570;-79
2021/12/30 03:10:21;;;;;;;25.53;19.30;;;7.80;99.90;;;;;;647106;222;26611;-79
2021/12/30 03:12:54;;;;;;;24.43;18.67;;;7.70;99.90;;;;;;647067;222;26575;-79
2021/12/30 03:15:17;;;;;;;25.07;18.43;;;7.70;99.90;;;;;;646734;222;26772;-79
2021/12/30 03:17:44;;;;;;;24.43;18.23;;;7.70;99.90;;;;;;637138;222;26816;-79
2021/12/30 03:20:11;;;;;;;23.17;17.67;;;7.80;99.90;;;;;;647085;222;26864;-79
2021/12/30 03:22:39;;;;;;;25.63;19.70;;;7.80;99.90;;;;;;647009;222;26811;-79
2021/12/30 03:25:06;;;;;;;25.33;19.33;;;7.70;99.90;;;;;;647027;222;26603;-79
2021/12/30 03:27:34;;;;;;;24.53;18.47;;;7.70;99.90;;;;;;646864;222;26538;-79
2021/12/30 03:30:03;;;;;;;27.57;18.43;;;7.70;99.90;;;;;;648715;221;26601;-79
2021/12/30 03:32:30;;;;;;;23.70;18.50;;;7.70;99.90;;;;;;648177;221;27188;-79
2021/12/30 03:34:57;;;;;;;24.93;18.80;;;7.60;99.90;;;;;;647956;221;26568;-79
2021/12/30 03:37:25;;;;;;;21.87;17.67;;;7.70;99.90;;;;;;647942;221;26787;-80
2021/12/30 03:39:52;;;;;;;26.37;17.73;;;7.80;99.90;;;;;;647662;222;26787;-79
2021/12/30 03:42:19;;;;;;;21.30;16.27;;;7.70;99.90;;;;;;647805;222;26775;-79
2021/12/30 03:44:46;;;;;;;22.90;17.20;;;7.90;99.90;;;;;;647819;222;26508;-79
2021/12/30 03:47:17;;;;;;;23.10;17.03;;;7.90;99.90;;;;;;647617;222;26783;-79
2021/12/30 03:49:44;;;;;;;23.60;16.67;;;7.90;99.90;;;;;;647251;222;26592;-79
2021/12/30 03:52:09;;;;;;;19.50;15.97;;;8.20;99.90;;;;;;647294;222;26804;-80
2021/12/30 03:54:36;;;;;;;21.50;16.33;;;8.20;99.90;;;;;;647446;222;26592;-80
2021/12/30 03:57:04;;;;;;;19.13;14.67;;;8.50;99.90;;;;;;647375;222;26571;-78
2021/12/30 03:59:32;;;;;;;21.07;15.70;;;8.70;99.90;;;;;;647308;222;26595;-78
2021/12/30 04:02:00;;;;;;;18.93;15.70;;;8.60;99.90;;;;;;647362;222;26587;-79
2021/12/30 04:04:28;;;;;;;18.80;15.27;;;8.60;99.90;;;;;;647104;222;26565;-79
2021/12/30 04:06:55;;;;;;;20.73;15.43;;;8.60;99.90;;;;;;646970;222;26583;-79
2021/12/30 04:09:22;;;;;;;19.23;15.30;;;8.80;99.90;;;;;;646906;222;26601;-79
2021/12/30 04:11:49;;;;;;;17.80;14.70;;;8.80;99.90;;;;;;647034;222;26806;-79
2021/12/30 04:14:16;;;;;;;17.07;14.30;;;8.50;99.90;;;;;;647068;222;26822;-79
2021/12/30 04:16:44;;;;;;;21.33;15.30;;;8.70;99.90;;;;;;647027;222;26839;-79
2021/12/30 04:19:11;;;;;;;19.93;14.40;;;9.00;99.90;;;;;;646877;222;26792;-79
2021/12/30 04:21:38;;;;;;;21.90;15.03;;;9.10;99.90;;;;;;646878;222;27313;-80
2021/12/30 04:24:05;;;;;;;22.10;15.67;;;8.70;99.90;;;;;;646875;222;26579;-79
2021/12/30 04:26:33;;;;;;;28.27;16.60;;;8.60;99.90;;;;;;647017;222;26587;-79
2021/12/30 04:29:01;;;;;;;27.50;17.77;;;8.50;99.90;;;;;;647062;222;26609;-79
2021/12/30 04:31:29;;;;;;;29.63;17.03;;;8.50;99.90;;;;;;647067;222;26591;-79
2021/12/30 04:33:56;;;;;;;30.53;17.97;;;8.50;99.90;;;;;;647063;222;26580;-79
2021/12/30 04:36:24;;;;;;;30.73;17.57;;;8.70;99.90;;;;;;646993;222;26578;-79
2021/12/30 04:38:51;;;;;;;33.33;19.90;;;8.80;99.90;;;;;;646875;222;26955;-79
2021/12/30 04:41:18;;;;;;;36.60;19.50;;;8.60;99.90;;;;;;648692;220;26792;-79
2021/12/30 04:43:45;;;;;;;38.17;20.00;;;8.50;99.90;;;;;;648315;221;27013;-80
2021/12/30 04:46:13;;;;;;;39.10;20.63;;;8.60;99.90;;;;;;648017;222;26560;-79
2021/12/30 04:48:40;;;;;;;39.27;21.70;;;8.70;99.90;;;;;;648452;221;27052;-79
2021/12/30 04:51:07;;;;;;;47.03;23.63;;;8.90;99.90;;;;;;648332;222;26486;-79
2021/12/30 04:53:34;;;;;;;41.97;21.13;;;8.70;99.90;;;;;;648328;222;26815;-79
2021/12/30 04:56:01;;;;;;;42.57;23.83;;;8.80;99.90;;;;;;648354;222;26480;-79
2021/12/30 04:58:28;;;;;;;42.90;21.83;;;9.00;99.90;;;;;;648145;222;26813;-79
2021/12/30 05:00:56;;;;;;;46.83;22.60;;;8.70;99.90;;;;;;647997;222;26531;-79
2021/12/30 05:03:24;;;;;;;48.93;23.10;;;8.80;99.90;;;;;;647990;222;26492;-80
2021/12/30 05:05:52;;;;;;;48.13;25.53;;;9.00;99.90;;;;;;648021;222;26567;-80
2021/12/30 05:08:20;;;;;;;50.80;24.87;;;8.90;99.90;;;;;;647975;222;26493;-79
2021/12/30 05:10:48;;;;;;;41.93;23.00;;;8.90;99.90;;;;;;647925;222;26546;-80
2021/12/30 05:13:15;;;;;;;45.37;24.60;;;9.00;99.90;;;;;;648017;222;26483;-79
2021/12/30 05:15:42;;;;;;;47.47;24.60;;;8.90;99.90;;;;;;647917;217;26725;-79
2021/12/30 05:18:09;;;;;;;49.80;25.23;;;8.90;99.90;;;;;;647699;222;26536;-79
2021/12/30 05:20:36;;;;;;;41.70;23.73;;;8.80;99.90;;;;;;647382;222;26978;-79
2021/12/30 05:23:04;;;;;;;43.23;24.10;;;8.90;99.90;;;;;;646992;217;26583;-78
2021/12/30 05:25:31;;;;;;;40.43;24.03;;;8.80;99.90;;;;;;647031;222;26903;-79
2021/12/30 05:27:58;;;;;;;48.53;24.73;;;8.70;99.90;;;;;;647125;222;26561;-79
2021/12/30 05:30:25;;;;;;;47.83;24.27;;;9.00;99.90;;;;;;647030;222;27061;-79
2021/12/30 05:32:52;;;;;;;52.93;23.77;;;9.00;99.90;;;;;;647088;222;26563;-81
2021/12/30 05:35:20;;;;;;;43.17;24.13;;;8.90;99.90;;;;;;646943;222;26841;-80
2021/12/30 05:37:48;;;;;;;47.00;23.53;;;9.20;99.90;;;;;;647005;217;26580;-80
2021/12/30 05:40:15;;;;;;;43.00;24.10;;;9.30;99.90;;;;;;646992;222;26603;-80
2021/12/30 05:42:43;;;;;;;37.87;24.03;;;9.10;99.90;;;;;;647002;222;26574;-80
2021/12/30 05:45:12;;;;;;;39.47;23.63;;;9.10;99.90;;;;;;647015;221;26594;-79
2021/12/30 05:47:39;;;;;;;45.20;23.53;;;9.10;99.90;;;;;;646966;222;26572;-79
2021/12/30 05:50:07;;;;;;;40.80;23.00;;;9.20;99.90;;;;;;647013;222;26597;-79
2021/12/30 05:52:34;;;;;;;47.83;26.47;;;9.00;99.90;;;;;;648747;220;26612;-79
2021/12/30 05:55:01;;;;;;;42.40;25.13;;;9.20;99.90;;;;;;648523;221;26824;-80
2021/12/30 05:57:29;;;;;;;45.70;25.17;;;9.30;99.90;;;;;;648107;221;26578;-79
2021/12/30 05:59:55;;;;;;;42.80;22.90;;;9.40;99.90;;;;;;648000;222;26789;-81
2021/12/30 06:02:23;;;;;;;45.90;22.30;;;9.50;99.90;;;;;;647662;222;26550;-79
2021/12/30 06:04:50;;;;;;;41.80;22.53;;;9.50;99.90;;;;;;647826;222;26755;-80
2021/12/30 06:07:18;;;;;;;37.50;21.73;;;9.40;99.90;;;;;;647919;222;26510;-80
2021/12/30 06:09:46;;;;;;;40.60;22.37;;;9.30;99.90;;;;;;647713;222;26577;-79
2021/12/30 06:12:14;;;;;;;48.17;25.07;;;9.30;99.90;;;;;;647470;222;26592;-79
2021/12/30 06:14:42;;;;;;;45.17;22.33;;;9.40;99.90;;;;;;647621;217;26546;-80
2021/12/30 06:17:13;;;;;;;42.10;24.83;;;9.50;99.90;;;;;;647515;222;26564;-78
2021/12/30 06:19:37;;;;;;;46.67;23.27;;;9.50;99.90;;;;;;647270;222;26571;-80
2021/12/30 06:22:04;;;;;;;42.23;21.93;;;9.30;99.90;;;;;;647634;222;26569;-79
2021/12/30 06:24:31;;;;;;;41.33;22.17;;;9.30;99.90;;;;;;647560;222;26826;-80
2021/12/30 06:26:58;;;;;;;48.17;22.43;;;9.40;99.90;;;;;;647428;222;26585;-80
2021/12/30 06:29:26;;;;;;;37.80;20.20;;;9.60;99.90;;;;;;647075;222;26816;-79
2021/12/30 06:31:53;;;;;;;34.40;20.50;;;9.50;99.90;;;;;;647085;222;26683;-80
2021/12/30 06:34:20;;;;;;;38.10;21.13;;;9.60;99.90;;;;;;647134;222;26841;-80
2021/12/30 06:36:47;;;;;;;33.60;19.43;;;9.40;99.90;;;;;;647080;222;26597;-80
2021/12/30 06:39:14;;;;;;;33.50;19.47;;;9.20;99.90;;;;;;647079;222;26853;-79
2021/12/30 06:41:42;;;;;;;40.30;20.23;;;9.20;99.90;;;;;;647087;217;26587;-80
2021/12/30 06:44:09;;;;;;;34.30;20.00;;;9.30;99.90;;;;;;641949;222;26864;-78
2021/12/30 06:46:36;;;;;;;37.53;20.43;;;9.30;99.90;;;;;;647203;222;26608;-78
2021/12/30 06:49:08;;;;;;;35.60;20.70;;;9.20;99.90;;;;;;647119;222;27177;-78
2021/12/30 06:51:35;;;;;;;37.90;19.60;;;9.20;99.90;;;;;;646930;222;26575;-78
2021/12/30 06:53:58;;;;;;;38.90;19.63;;;9.40;99.90;;;;;;647007;222;26806;-78
2021/12/30 06:56:25;;;;;;;38.77;19.73;;;9.20;99.90;;;;;;647282;222;26591;-78
2021/12/30 06:58:52;;;;;;;37.90;19.70;;;9.00;99.90;;;;;;647365;222;26835;-78
2021/12/30 07:01:20;;;;;;;39.13;19.67;;;9.00;99.90;;;;;;647358;222;26567;-79
2021/12/30 07:03:47;;;;;;;36.53;19.37;;;8.90;99.90;;;;;;648657;220;26863;-78
2021/12/30 07:06:14;;;;;;;33.27;19.20;;;8.80;99.90;;;;;;648808;221;26539;-78
2021/12/30 07:08:41;;;;;;;37.20;21.10;;;8.70;99.90;;;;;;648424;222;26756;-78
2021/12/30 07:11:08;;;;;;;47.77;20.77;;;8.70;99.90;;;;;;648306;221;26578;-77
2021/12/30 07:13:36;;;;;;;37.80;19.50;;;8.60;99.90;;;;;;647911;222;26928;-78
2021/12/30 07:16:03;;;;;;;44.80;22.17;;;8.60;99.90;;;;;;647956;222;26506;-77
2021/12/30 07:18:30;;;;;;;37.30;20.27;;;8.60;99.90;;;;;;647812;222;26510;-77
2021/12/30 07:20:58;;;;;;;35.87;20.57;;;8.50;99.90;;;;;;647756;217;26542;-78
2021/12/30 07:23:25;;;;;;;37.20;21.27;;;8.60;99.90;;;;;;647566;222;26816;-77
2021/12/30 07:25:52;;;;;;;44.57;20.77;;;8.60;99.90;;;;;;647644;222;26729;-78
2021/12/30 07:28:20;;;;;;;37.70;21.20;;;8.70;99.90;;;;;;647435;217;26921;-78
2021/12/30 07:30:47;;;;;;;39.50;20.50;;;8.90;99.90;;;;;;647432;222;26609;-78
2021/12/30 07:33:14;;;;;;;38.00;20.07;;;9.00;99.90;;;;;;647479;217;26782;-78
2021/12/30 07:35:42;;;;;;;39.37;20.40;;;9.10;99.90;;;;;;647524;222;26548;-78
2021/12/30 07:38:08;;;;;;;39.03;19.73;;;9.30;99.90;;;;;;647565;222;26786;-78
2021/12/30 07:40:36;;;;;;;37.53;19.83;;;9.50;99.90;;;;;;647226;222;26604;-78
2021/12/30 07:43:03;;;;;;;39.63;19.53;;;9.30;99.90;;;;;;647180;222;27173;-78
2021/12/30 07:45:30;;;;;;;34.97;19.37;;;9.30;99.90;;;;;;647144;222;26592;-78
2021/12/30 07:47:57;;;;;;;31.80;18.70;;;9.30;99.90;;;;;;647140;222;26787;-78
2021/12/30 07:50:25;;;;;;;34.57;17.73;;;9.40;99.90;;;;;;647095;222;26588;-78
2021/12/30 07:52:53;;;;;;;37.57;19.07;;;9.30;99.90;;;;;;647150;222;26793;-78
2021/12/30 07:55:19;;;;;;;34.67;19.30;;;9.30;99.90;;;;;;647090;222;26779;-80
2021/12/30 07:57:46;;;;;;;31.47;18.30;;;9.20;99.90;;;;;;647179;222;26801;-80
2021/12/30 08:00:14;;;;;;;39.57;19.10;;;9.20;99.90;;;;;;647182;222;26600;-81
2021/12/30 08:02:44;;;;;;;41.03;19.37;;;9.20;99.90;;;;;;643885;221;26512;-80
2021/12/30 08:05:11;;;;;;;40.50;19.33;;;9.20;99.90;;;;;;644315;221;26837;-81
2021/12/30 08:07:38;;;;;;;34.10;17.33;;;9.10;99.90;;;;;;640387;222;26592;-81
2021/12/30 08:10:10;;;;;;;38.63;18.30;;;9.10;99.90;;;;;;642295;221;26587;-81
2021/12/30 08:12:33;;;;;;;29.80;18.23;;;9.20;99.90;;;;;;642239;221;26582;-80
2021/12/30 08:15:01;;;;;;;45.67;20.03;;;9.20;99.90;;;;;;642714;218;26536;-81
2021/12/30 08:17:28;;;;;;;41.27;18.43;;;9.20;99.90;;;;;;642426;221;26775;-82
2021/12/30 08:19:55;;;;;;;39.80;18.33;;;9.20;99.90;;;;;;638394;221;26543;-82
2021/12/30 08:22:23;;;;;;;41.00;19.03;;;9.50;99.90;;;;;;638224;225;26836;-82
2021/12/30 08:24:50;;;;;;;39.73;17.70;;;9.70;99.90;;;;;;637942;224;26515;-82
2021/12/30 08:27:17;;;;;;;37.67;17.27;;;9.70;99.90;;;;;;637909;225;26513;-82
2021/12/30 08:29:45;;;;;;;33.40;18.43;;;9.90;99.90;;;;;;637844;221;26760;-82
2021/12/30 08:32:13;;;;;;;34.73;17.57;;;9.90;99.90;;;;;;637822;225;26520;-81
2021/12/30 08:34:42;;;;;;;34.17;17.00;;;10.00;99.90;;;;;;638973;219;26591;-80
2021/12/30 08:37:09;;;;;;;34.90;16.80;;;10.00;99.90;;;;;;638408;222;26570;-80
2021/12/30 08:39:37;;;;;;;30.43;16.40;;;10.20;99.90;;;;;;639264;222;26614;-79
2021/12/30 08:42:05;;;;;;;41.27;16.63;;;10.20;99.90;;;;;;638106;224;26568;-79
2021/12/30 08:44:33;;;;;;;33.33;17.37;;;10.20;99.90;;;;;;645962;222;26580;-79
2021/12/30 08:47:01;;;;;;;35.03;17.53;;;10.40;99.90;;;;;;647382;222;26602;-79
2021/12/30 08:49:29;;;;;;;28.37;16.00;;;10.30;99.90;;;;;;647277;222;26595;-79
2021/12/30 08:51:57;;;;;;;32.20;16.93;;;10.30;99.90;;;;;;648105;221;26542;-79
2021/12/30 08:54:24;;;;;;;32.63;16.07;;;10.50;99.90;;;;;;649910;221;26510;-80
2021/12/30 08:56:52;;;;;;;28.17;15.47;;;10.50;99.90;;;;;;649830;221;26534;-80
2021/12/30 08:59:20;;;;;;;35.60;15.70;;;10.40;99.90;;;;;;649844;221;26534;-80
2021/12/30 09:01:48;;;;;;;27.33;15.47;;;10.40;99.90;;;;;;649988;221;26546;-80
2021/12/30 09:04:16;;;;;;;30.10;15.37;;;10.50;99.90;;;;;;649942;221;26546;-80
2021/12/30 09:06:44;;;;;;;29.63;15.47;;;10.50;99.90;;;;;;649952;221;26507;-81
2021/12/30 09:09:12;;;;;;;29.30;15.63;;;10.40;99.90;;;;;;643926;221;26531;-80
2021/12/30 09:11:40;;;;;;;29.80;15.97;;;10.20;99.90;;;;;;637062;224;26601;-80
2021/12/30 09:14:08;;;;;;;29.13;14.90;;;10.50;99.90;;;;;;639657;224;26609;-80
2021/12/30 09:16:36;;;;;;;29.23;15.23;;;10.40;99.90;;;;;;646867;222;26538;-81
2021/12/30 09:19:04;;;;;;;29.93;14.50;;;10.50;99.90;;;;;;647145;222;26612;-80
2021/12/30 09:21:31;;;;;;;31.90;15.87;;;10.50;99.90;;;;;;647158;222;26575;-80
2021/12/30 09:23:59;;;;;;;27.63;15.20;;;10.60;99.90;;;;;;647216;222;27242;-80
2021/12/30 09:26:26;;;;;;;31.27;14.47;;;10.70;99.90;;;;;;648149;220;26582;-80
2021/12/30 09:28:53;;;;;;;25.83;13.67;;;10.90;99.90;;;;;;648666;221;26538;-80
2021/12/30 09:31:20;;;;;;;31.17;15.27;;;10.90;99.90;;;;;;648425;221;26535;-80
2021/12/30 09:33:48;;;;;;;23.23;13.63;;;11.10;99.90;;;;;;648241;221;26597;-79
2021/12/30 09:36:15;;;;;;;27.50;14.23;;;11.10;99.90;;;;;;647970;221;26534;-80
2021/12/30 09:38:43;;;;;;;22.70;13.83;;;11.20;99.90;;;;;;647975;222;26506;-81
2021/12/30 09:41:11;;;;;;;24.90;13.30;;;11.20;99.90;;;;;;648047;222;26533;-81
2021/12/30 09:43:39;;;;;;;28.97;14.17;;;11.30;99.90;;;;;;642063;222;26508;-81
2021/12/30 09:46:07;;;;;;;24.50;13.90;;;11.30;99.90;;;;;;637514;224;26567;-81
2021/12/30 09:48:34;;;;;;;25.77;14.50;;;11.70;99.90;;;;;;637486;224;26897;-80
2021/12/30 09:51:04;;;;;;;23.10;14.00;;;11.70;99.90;;;;;;633236;221;26547;-79
2021/12/30 09:53:30;;;;;;;22.37;13.53;;;11.60;99.90;;;;;;649803;221;26526;-80
2021/12/30 09:55:59;;;;;;;27.37;14.93;;;11.50;99.90;;;;;;648215;221;26519;-80
2021/12/30 09:58:26;;;;;;;30.47;14.87;;;11.40;99.90;;;;;;647512;222;26594;-80
2021/12/30 10:00:55;;;;;;;22.67;13.03;;;11.60;99.90;;;;;;647566;222;26563;-79
2021/12/30 10:03:22;;;;;;;19.60;13.13;;;11.50;99.90;;;;;;647298;222;26617;-79
2021/12/30 10:05:49;;;;;;;31.03;14.67;;;11.50;99.90;;;;;;647107;222;26579;-79
2021/12/30 10:08:17;;;;;;;25.33;13.63;;;11.50;99.90;;;;;;647196;222;26522;-81
2021/12/30 10:10:45;;;;;;;25.37;13.33;;;11.80;99.90;;;;;;647017;222;26608;-76
2021/12/30 10:13:14;;;;;;;25.57;14.50;;;11.90;99.90;;;;;;647128;222;26588;-77
2021/12/30 10:15:42;;;;;;;22.63;13.83;;;11.80;99.90;;;;;;648815;221;26769;-77
2021/12/30 10:18:09;;;;;;;21.07;12.50;;;11.80;99.90;;;;;;649999;221;26546;-77
2021/12/30 10:20:39;;;;;;;22.10;13.43;;;11.80;99.90;;;;;;649923;221;26782;-78
2021/12/30 10:23:09;;;;;;;21.10;14.00;;;11.90;99.90;;;;;;645114;221;26500;-77
2021/12/30 10:25:36;;;;;;;25.07;13.90;;;11.70;99.90;;;;;;637503;224;26550;-77
2021/12/30 10:28:15;;;;;;;27.43;14.23;;;11.80;99.90;;;;;;639788;222;26776;-77
2021/12/30 10:30:43;;;;;;;22.67;13.83;;;11.70;99.90;;;;;;640469;224;26540;-77
2021/12/30 10:33:11;;;;;;;22.53;13.90;;;11.70;99.90;;;;;;639113;224;26585;-77
2021/12/30 10:35:39;;;;;;;21.20;14.10;;;11.60;99.90;;;;;;639039;224;27263;-77
2021/12/30 10:38:09;;;;;;;19.07;13.17;;;11.60;99.90;;;;;;641441;222;26810;-77
2021/12/30 10:40:33;;;;;;;23.47;13.97;;;11.60;99.90;;;;;;638366;218;26564;-77
2021/12/30 10:43:12;;;;;;;21.90;13.33;;;11.60;99.90;;;;;;638091;224;26849;-77
2021/12/30 10:45:39;;;;;;;21.27;13.90;;;11.40;99.90;;;;;;637894;223;26552;-77
2021/12/30 10:48:07;;;;;;;24.20;13.13;;;11.60;99.90;;;;;;637634;223;26519;-84
2021/12/30 10:50:35;;;;;;;21.90;14.20;;;11.50;99.90;;;;;;637475;225;26546;-82
2021/12/30 10:53:03;;;;;;;25.80;14.00;;;11.50;99.90;;;;;;637720;225;26519;-82
2021/12/30 10:55:32;;;;;;;24.03;13.50;;;11.40;99.90;;;;;;637692;225;26511;-81
2021/12/30 10:57:59;;;;;;;21.57;13.07;;;11.50;99.90;;;;;;637269;221;26585;-81
2021/12/30 11:00:28;;;;;;;21.03;12.40;;;11.40;99.90;;;;;;637341;221;26600;-81
2021/12/30 11:02:55;;;;;;;22.93;13.20;;;11.40;99.90;;;;;;637445;223;26576;-79
2021/12/30 11:05:23;;;;;;;24.73;12.97;;;11.00;99.90;;;;;;638960;224;26608;-78
2021/12/30 11:07:51;;;;;;;22.23;12.30;;;11.10;99.90;;;;;;640751;223;26582;-78
2021/12/30 11:10:27;;;;;;;19.53;12.17;;;11.10;99.90;;;;;;640495;224;26596;-78
2021/12/30 11:12:55;;;;;;;19.57;12.60;;;11.10;99.90;;;;;;637203;224;26575;-78
2021/12/30 11:15:22;;;;;;;25.20;13.97;;;11.30;99.90;;;;;;638437;224;27258;-78
2021/12/30 11:17:49;;;;;;;16.87;12.57;;;11.60;99.90;;;;;;638489;224;26584;-78
2021/12/30 11:20:16;;;;;;;22.93;12.87;;;11.60;99.90;;;;;;636899;226;26917;-78
2021/12/30 11:22:44;;;;;;;22.10;13.87;;;11.40;99.90;;;;;;637829;219;26580;-77
2021/12/30 11:25:11;;;;;;;23.30;12.40;;;11.50;99.90;;;;;;641198;219;26528;-78
2021/12/30 11:27:39;;;;;;;19.43;12.10;;;11.70;99.90;;;;;;640007;224;26532;-78
2021/12/30 11:30:06;;;;;;;16.97;11.43;;;11.70;99.90;;;;;;640765;221;26512;-78
2021/12/30 11:32:34;;;;;;;17.67;11.20;;;11.70;99.90;;;;;;640593;218;26512;-78
2021/12/30 11:35:03;;;;;;;20.43;12.03;;;11.80;99.90;;;;;;637609;224;26557;-78
2021/12/30 11:37:28;;;;;;;22.33;11.87;;;11.70;99.90;;;;;;639202;224;26537;-79
2021/12/30 11:39:55;;;;;;;19.73;12.07;;;11.60;99.90;;;;;;641006;221;26507;-77
2021/12/30 11:42:24;;;;;;;19.50;11.10;;;11.30;99.90;;;;;;638119;224;26538;-78
2021/12/30 11:44:52;;;;;;;18.73;11.30;;;11.30;99.90;;;;;;642487;222;26544;-77
2021/12/30 11:47:31;;;;;;;17.00;11.53;;;11.40;99.90;;;;;;647355;222;27163;-78
2021/12/30 11:49:59;;;;;;;18.67;11.00;;;11.30;99.90;;;;;;648216;220;26601;-77
2021/12/30 11:52:38;;;;;;;18.90;11.23;;;11.40;99.90;;;;;;650757;220;26512;-77
2021/12/30 11:55:05;;;;;;;17.73;11.50;;;11.60;99.90;;;;;;648053;221;26572;-77
2021/12/30 11:57:34;;;;;;;18.87;12.13;;;11.50;99.90;;;;;;644677;222;26911;-77
2021/12/30 12:00:00;;;;;;;17.63;10.80;;;11.40;99.90;;;;;;647497;221;26517;-77
2021/12/30 12:02:35;;;;;;;21.17;11.80;;;11.40;99.90;;;;;;647459;222;26926;-77
2021/12/30 12:05:26;;;;;;;16.77;11.17;;;11.40;99.90;;;;;;647561;222;26781;-77
2021/12/30 12:08:02;;;;;;;25.47;12.73;;;11.20;99.90;;;;;;647918;221;26600;-77
2021/12/30 12:10:29;;;;;;;19.67;11.47;;;11.10;99.90;;;;;;639435;221;26563;-77
2021/12/30 12:12:57;;;;;;;17.13;11.80;;;11.20;99.90;;;;;;638601;221;26522;-76
2021/12/30 12:15:24;;;;;;;23.70;13.27;;;11.40;99.90;;;;;;640707;224;26543;-76
2021/12/30 12:17:52;;;;;;;20.27;11.77;;;11.20;99.90;;;;;;638546;224;26536;-75
2021/12/30 12:20:21;;;;;;;21.90;12.37;;;11.20;99.90;;;;;;641208;224;26577;-77
2021/12/30 12:22:47;;;;;;;20.07;12.00;;;11.10;99.90;;;;;;639622;219;26772;-77
2021/12/30 12:25:19;;;;;;;24.23;13.17;;;11.20;99.90;;;;;;637596;225;26545;-77
2021/12/30 12:27:45;;;;;;;23.43;13.33;;;11.40;99.90;;;;;;637346;224;26546;-77
2021/12/30 12:30:22;;;;;;;26.50;14.67;;;11.50;99.90;;;;;;637308;224;26806;-77
2021/12/30 12:32:49;;;;;;;25.27;14.60;;;11.60;99.90;;;;;;637321;225;26861;-78
2021/12/30 12:35:26;;;;;;;24.33;14.93;;;11.50;99.90;;;;;;637400;224;26531;-77
2021/12/30 12:37:54;;;;;;;22.03;14.93;;;11.50;99.90;;;;;;637411;225;26532;-77